Time;durP1;ratioP1;P1;durP2;ratioP2;P2;SDS_P1;SDS_P2;PMS_P1;PMS_P2;Temp;Humidity;BMP_temperature;BMP_pressure;BME280_temperature;BME280_humidity;BME280_pressure;Samples;Min_cycle;Max_cycle;Signal;HPM_P1;HPM_P2
2023/06/18 00:15:16;;;;;;;15.48;10.20;;;;;;;;;;4818764;29;20042;-83
2023/06/18 01:16:03;;;;;;;15.82;9.13;;;;;;;;;;4789038;30;20066;-83
2023/06/18 01:19:12;;;;;;;12.32;9.00;;;;;;;;;;4855180;29;20053;-84
2023/06/18 01:22:37;;;;;;;14.10;8.95;;;;;;;;;;4862709;29;20045;-84
2023/06/18 01:25:37;;;;;;;14.77;9.05;;;;;;;;;;4875567;29;20053;-83
2023/06/18 01:28:37;;;;;;;11.35;8.32;;;;;;;;;;4875372;29;20044;-84
2023/06/18 01:31:23;;;;;;;11.20;8.88;;;;;;;;;;4875274;29;20411;-84
2023/06/18 01:34:12;;;;;;;13.77;8.73;;;;;;;;;;4888147;29;20037;-84
2023/06/18 01:37:10;;;;;;;12.93;8.13;;;;;;;;;;4888223;29;20049;-83
2023/06/18 01:40:19;;;;;;;14.30;8.90;;;;;;;;;;4875100;29;20041;-84
2023/06/18 01:43:27;;;;;;;15.35;7.97;;;;;;;;;;4862219;29;20399;-83
2023/06/18 01:46:16;;;;;;;11.35;8.15;;;;;;;;;;4888092;29;20040;-83
2023/06/18 01:49:07;;;;;;;11.00;8.48;;;;;;;;;;4883301;29;20057;-83
2023/06/18 01:51:56;;;;;;;12.15;7.60;;;;;;;;;;4887252;29;20040;-83
2023/06/18 01:54:48;;;;;;;10.18;7.95;;;;;;;;;;4893776;29;20053;-84
2023/06/18 01:57:33;;;;;;;28.10;21.88;;;;;;;;;;4893556;29;20037;-84
2023/06/18 02:00:19;;;;;;;16.92;9.27;;;;;;;;;;4901556;29;20045;-83
2023/06/18 02:03:04;;;;;;;776.60;606.60;;;;;;;;;;4900629;29;20426;-84
2023/06/18 02:05:55;;;;;;;600.60;417.33;;;;;;;;;;4899785;29;20057;-83
2023/06/18 02:08:41;;;;;;;20.27;12.88;;;;;;;;;;4906268;29;20045;-83
2023/06/18 02:11:26;;;;;;;210.43;127.45;;;;;;;;;;4892667;29;20053;-83
2023/06/18 02:14:12;;;;;;;23.38;17.17;;;;;;;;;;4892428;29;20387;-84
2023/06/18 02:17:01;;;;;;;84.07;46.83;;;;;;;;;;4905794;29;20399;-84
2023/06/18 02:19:57;;;;;;;58.28;37.72;;;;;;;;;;4893018;29;20048;-83
2023/06/18 02:22:46;;;;;;;13.55;8.90;;;;;;;;;;4893472;29;20052;-84
2023/06/18 02:25:35;;;;;;;13.30;7.43;;;;;;;;;;4906411;29;20036;-84
2023/06/18 02:28:20;;;;;;;10.95;7.68;;;;;;;;;;4906046;29;20052;-84
2023/06/18 02:31:09;;;;;;;13.68;7.50;;;;;;;;;;4906168;29;20048;-84
2023/06/18 02:33:57;;;;;;;13.50;7.97;;;;;;;;;;4905555;29;20478;-84
2023/06/18 02:36:46;;;;;;;16.13;7.75;;;;;;;;;;4893154;29;20045;-84
2023/06/18 02:39:32;;;;;;;11.73;6.95;;;;;;;;;;4892811;29;20048;-84
2023/06/18 02:42:23;;;;;;;9.52;6.85;;;;;;;;;;4892579;29;20048;-84
2023/06/18 02:45:09;;;;;;;9.57;6.65;;;;;;;;;;4892607;29;20483;-84
2023/06/18 02:47:54;;;;;;;10.57;6.80;;;;;;;;;;4886415;29;20048;-84
2023/06/18 02:50:40;;;;;;;11.07;5.97;;;;;;;;;;4906245;29;20040;-83
2023/06/18 02:53:25;;;;;;;10.18;6.40;;;;;;;;;;4905952;29;20048;-83
2023/06/18 02:56:14;;;;;;;10.95;6.57;;;;;;;;;;4892048;29;20050;-84
2023/06/18 02:59:01;;;;;;;8.45;6.20;;;;;;;;;;4892388;29;20056;-84
2023/06/18 03:01:48;;;;;;;7.85;6.25;;;;;;;;;;4892489;29;20056;-84
2023/06/18 03:04:35;;;;;;;9.45;6.15;;;;;;;;;;4891266;29;20045;-83
2023/06/18 03:07:24;;;;;;;13.95;6.15;;;;;;;;;;4905342;29;20482;-84
2023/06/18 03:10:14;;;;;;;10.10;5.50;;;;;;;;;;4905136;29;20052;-83
2023/06/18 03:13:01;;;;;;;10.13;5.13;;;;;;;;;;4891967;29;20052;-84
2023/06/18 03:16:06;;;;;;;7.63;5.20;;;;;;;;;;4894674;29;20048;-84
2023/06/18 03:18:56;;;;;;;10.07;5.53;;;;;;;;;;4892598;29;20048;-83
2023/06/18 03:21:43;;;;;;;7.53;5.57;;;;;;;;;;4891792;29;20045;-84
2023/06/18 03:24:32;;;;;;;10.52;5.75;;;;;;;;;;4892135;29;20045;-84
2023/06/18 03:27:17;;;;;;;7.00;5.32;;;;;;;;;;4905035;29;20048;-84
2023/06/18 03:30:04;;;;;;;6.93;5.30;;;;;;;;;;4891989;29;20410;-83
2023/06/18 03:33:04;;;;;;;8.48;4.82;;;;;;;;;;4891782;29;20056;-84
2023/06/18 03:35:51;;;;;;;6.03;5.13;;;;;;;;;;4891592;29;20049;-83
2023/06/18 03:38:56;;;;;;;8.60;5.20;;;;;;;;;;4892064;29;20394;-84
2023/06/18 03:41:44;;;;;;;8.30;4.88;;;;;;;;;;4891845;29;20048;-84
2023/06/18 03:48:50;;;;;;;6.80;4.97;;;;;;;;;;4911641;29;20040;-83
2023/06/18 03:51:51;;;;;;;10.30;5.25;;;;;;;;;;4905033;29;20048;-84
2023/06/18 03:54:41;;;;;;;5.85;4.47;;;;;;;;;;4901473;29;20411;-84
2023/06/18 03:57:32;;;;;;;7.85;4.60;;;;;;;;;;4904354;29;20056;-83
2023/06/18 04:09:15;;;;;;;9.70;4.18;;;;;;;;;;5775472;23;20055;-86
2023/06/18 04:12:02;;;;;;;7.28;4.28;;;;;;;;;;4942086;29;20039;-85
2023/06/18 04:17:45;;;;;;;9.18;4.85;;;;;;;;;;4996528;23;20055;-86
2023/06/18 04:20:32;;;;;;;9.02;5.10;;;;;;;;;;4950464;29;20047;-87
2023/06/18 04:23:24;;;;;;;9.60;4.82;;;;;;;;;;4962619;28;20051;-87
2023/06/18 04:26:10;;;;;;;9.38;4.53;;;;;;;;;;4927301;29;20047;-86
2023/06/18 04:28:57;;;;;;;17.88;4.55;;;;;;;;;;4928836;29;20047;-86
2023/06/18 04:31:43;;;;;;;8.27;5.13;;;;;;;;;;4929851;29;20044;-86
2023/06/18 04:34:40;;;;;;;11.15;5.45;;;;;;;;;;4928551;29;20466;-84
2023/06/18 04:37:26;;;;;;;10.00;4.40;;;;;;;;;;4929714;29;20048;-85
2023/06/18 04:40:12;;;;;;;6.53;4.72;;;;;;;;;;4929648;29;20047;-85
2023/06/18 04:42:59;;;;;;;9.73;5.00;;;;;;;;;;4928931;29;20043;-84
2023/06/18 04:45:52;;;;;;;8.48;4.18;;;;;;;;;;4929848;29;20043;-86
2023/06/18 04:48:39;;;;;;;8.32;4.85;;;;;;;;;;4928232;29;20047;-85
2023/06/18 04:51:26;;;;;;;10.95;4.80;;;;;;;;;;4928360;29;20047;-84
2023/06/18 04:54:11;;;;;;;9.68;5.10;;;;;;;;;;4928609;29;20493;-85
2023/06/18 04:56:57;;;;;;;11.02;5.15;;;;;;;;;;4928576;29;20039;-84
2023/06/18 04:59:43;;;;;;;7.00;4.82;;;;;;;;;;4935707;29;20402;-84
2023/06/18 05:02:29;;;;;;;8.02;4.72;;;;;;;;;;4928191;29;20047;-84
2023/06/18 05:05:18;;;;;;;6.60;4.20;;;;;;;;;;4928502;29;20048;-84
2023/06/18 05:08:04;;;;;;;5.82;4.30;;;;;;;;;;4927026;29;20047;-83
2023/06/18 05:10:50;;;;;;;6.28;4.20;;;;;;;;;;4927717;29;20047;-83
2023/06/18 05:13:37;;;;;;;6.38;3.90;;;;;;;;;;4927773;29;20044;-85
2023/06/18 05:16:22;;;;;;;10.48;4.07;;;;;;;;;;4921321;29;20056;-85
2023/06/18 05:19:09;;;;;;;5.28;4.20;;;;;;;;;;4929517;29;20059;-84
2023/06/18 05:21:54;;;;;;;6.05;3.78;;;;;;;;;;4927828;29;20048;-83
2023/06/18 05:24:43;;;;;;;10.07;3.80;;;;;;;;;;4928092;29;20040;-83
2023/06/18 05:27:28;;;;;;;10.55;4.00;;;;;;;;;;4923009;29;20088;-85
2023/06/18 05:30:15;;;;;;;6.20;3.47;;;;;;;;;;4930674;29;20502;-85
2023/06/18 05:33:32;;;;;;;6.78;3.75;;;;;;;;;;4916568;29;20043;-84
2023/06/18 05:36:33;;;;;;;5.43;3.60;;;;;;;;;;4916901;29;20052;-85
2023/06/18 05:39:39;;;;;;;6.60;3.60;;;;;;;;;;4926448;29;20075;-84
2023/06/18 05:42:28;;;;;;;5.88;3.65;;;;;;;;;;4917793;29;20051;-83
2023/06/18 05:45:15;;;;;;;8.02;4.03;;;;;;;;;;4931399;29;20051;-84
2023/06/18 05:48:07;;;;;;;4.10;3.55;;;;;;;;;;4918553;29;20043;-84
2023/06/18 05:51:02;;;;;;;5.35;3.40;;;;;;;;;;4930983;29;20044;-84
2023/06/18 05:53:52;;;;;;;4.32;3.20;;;;;;;;;;4931094;29;20051;-83
2023/06/18 05:56:37;;;;;;;6.25;3.30;;;;;;;;;;4931096;29;20043;-84
2023/06/18 05:59:23;;;;;;;5.82;3.60;;;;;;;;;;4939075;29;20044;-84
2023/06/18 06:02:14;;;;;;;7.45;3.33;;;;;;;;;;4930654;29;20043;-81
2023/06/18 06:05:02;;;;;;;9.15;3.40;;;;;;;;;;4931192;29;20043;-82
2023/06/18 06:07:48;;;;;;;11.18;3.55;;;;;;;;;;4917703;29;20051;-82
2023/06/18 06:10:35;;;;;;;4.93;3.13;;;;;;;;;;4917245;29;20486;-83
2023/06/18 06:13:20;;;;;;;4.70;3.25;;;;;;;;;;4930794;29;20040;-84
2023/06/18 06:16:12;;;;;;;4.10;3.40;;;;;;;;;;4928182;29;20047;-84
2023/06/18 06:19:05;;;;;;;6.88;3.33;;;;;;;;;;4930640;29;20047;-84
2023/06/18 06:22:22;;;;;;;5.20;3.20;;;;;;;;;;4927426;29;20048;-83
2023/06/18 06:25:50;;;;;;;5.95;3.33;;;;;;;;;;4931777;29;20047;-83
2023/06/18 06:29:01;;;;;;;4.13;3.35;;;;;;;;;;4930679;29;20051;-83
2023/06/18 06:36:43;;;;;;;;;;;;;;;;;;;;;
2023/06/18 06:44:20;;;;;;;6.22;2.72;;;;;;;;;;4873384;29;20049;-85
2023/06/18 06:51:42;;;;;;;5.25;2.58;;;;;;;;;;4866582;29;20083;-84
2023/06/18 06:54:33;;;;;;;6.25;2.70;;;;;;;;;;4835917;29;20066;-83
2023/06/18 06:57:19;;;;;;;5.63;2.58;;;;;;;;;;4835634;29;20050;-83
2023/06/18 07:00:16;;;;;;;4.85;2.67;;;;;;;;;;4905537;29;20052;-84
2023/06/18 07:03:01;;;;;;;3.15;2.42;;;;;;;;;;4917110;29;20055;-84
2023/06/18 07:05:46;;;;;;;3.33;2.90;;;;;;;;;;4930411;29;20047;-83
2023/06/18 07:08:32;;;;;;;6.47;3.00;;;;;;;;;;4937780;29;20048;-82
2023/06/18 07:11:17;;;;;;;5.28;2.80;;;;;;;;;;4937908;29;20044;-82
2023/06/18 07:14:04;;;;;;;3.72;2.47;;;;;;;;;;4937694;29;20039;-84
2023/06/18 07:16:50;;;;;;;8.52;3.08;;;;;;;;;;4939358;29;20043;-84
2023/06/18 07:20:20;;;;;;;6.43;2.90;;;;;;;;;;4947112;29;20062;-84
2023/06/18 07:23:05;;;;;;;4.85;2.97;;;;;;;;;;4927811;29;20056;-84
2023/06/18 07:25:52;;;;;;;4.00;2.90;;;;;;;;;;4925842;29;20481;-83
2023/06/18 07:28:37;;;;;;;4.70;2.88;;;;;;;;;;4926954;29;20052;-87
2023/06/18 07:31:26;;;;;;;4.10;2.97;;;;;;;;;;4932281;29;20044;-83
2023/06/18 07:34:11;;;;;;;3.50;2.55;;;;;;;;;;4931806;29;20047;-83
2023/06/18 07:37:00;;;;;;;2.97;2.28;;;;;;;;;;4938173;29;20043;-85
2023/06/18 07:39:48;;;;;;;4.10;2.65;;;;;;;;;;4937984;29;20044;-83
2023/06/18 07:42:34;;;;;;;2.63;2.20;;;;;;;;;;4929385;29;20043;-86
2023/06/18 07:45:20;;;;;;;3.03;2.30;;;;;;;;;;4937158;29;20052;-84
2023/06/18 07:48:07;;;;;;;3.58;2.47;;;;;;;;;;4929202;29;20044;-84
2023/06/18 07:50:53;;;;;;;5.22;2.63;;;;;;;;;;4928154;29;20489;-83
2023/06/18 07:53:42;;;;;;;4.80;2.85;;;;;;;;;;4937379;29;20123;-84
2023/06/18 07:56:27;;;;;;;4.32;2.85;;;;;;;;;;4922607;29;20048;-84
2023/06/18 07:59:12;;;;;;;3.50;2.85;;;;;;;;;;4937241;29;20039;-84
2023/06/18 08:02:23;;;;;;;4.55;2.90;;;;;;;;;;4931490;29;20051;-84
2023/06/18 08:05:15;;;;;;;5.53;2.90;;;;;;;;;;4922056;29;20048;-84
2023/06/18 08:08:00;;;;;;;4.30;2.67;;;;;;;;;;4936736;29;20047;-76
2023/06/18 08:10:46;;;;;;;7.65;3.05;;;;;;;;;;4943372;29;20052;-76
2023/06/18 08:13:31;;;;;;;3.95;2.65;;;;;;;;;;4936637;29;20040;-75
2023/06/18 08:16:17;;;;;;;6.72;3.30;;;;;;;;;;4935896;29;20061;-76
2023/06/18 08:19:02;;;;;;;6.85;2.88;;;;;;;;;;4942803;29;20047;-79
2023/06/18 08:21:49;;;;;;;3.30;2.63;;;;;;;;;;4936741;29;20043;-76
2023/06/18 08:24:34;;;;;;;7.47;3.30;;;;;;;;;;4937065;29;20051;-76
2023/06/18 08:27:19;;;;;;;4.65;3.15;;;;;;;;;;4936176;29;20051;-75
2023/06/18 08:30:06;;;;;;;5.90;3.30;;;;;;;;;;4936012;29;20048;-76
2023/06/18 08:32:51;;;;;;;4.47;3.13;;;;;;;;;;4922283;29;20047;-76
2023/06/18 08:35:37;;;;;;;4.13;3.10;;;;;;;;;;4942624;29;20052;-76
2023/06/18 08:38:23;;;;;;;5.38;3.17;;;;;;;;;;4936309;29;20040;-76
2023/06/18 08:41:09;;;;;;;4.28;3.35;;;;;;;;;;4935648;29;20081;-76
2023/06/18 08:43:55;;;;;;;6.38;3.50;;;;;;;;;;4936241;29;20039;-76
2023/06/18 08:46:46;;;;;;;3.78;2.67;;;;;;;;;;4936147;29;20044;-79
2023/06/18 08:49:32;;;;;;;6.10;3.30;;;;;;;;;;4942976;29;20039;-76
2023/06/18 08:52:19;;;;;;;5.95;3.42;;;;;;;;;;4936929;29;20043;-75
2023/06/18 08:55:08;;;;;;;5.15;3.28;;;;;;;;;;4921675;29;20040;-75
2023/06/18 08:58:04;;;;;;;6.38;4.07;;;;;;;;;;4936288;29;20055;-76
2023/06/18 09:00:51;;;;;;;5.85;3.60;;;;;;;;;;4935234;29;20048;-76
2023/06/18 09:03:37;;;;;;;5.55;3.33;;;;;;;;;;4943173;29;20047;-77
2023/06/18 09:06:23;;;;;;;4.30;2.92;;;;;;;;;;4938990;29;20044;-76
2023/06/18 09:09:08;;;;;;;5.65;3.47;;;;;;;;;;4938161;29;20047;-76
2023/06/18 09:11:54;;;;;;;7.45;3.00;;;;;;;;;;4939546;29;20378;-76
2023/06/18 09:14:39;;;;;;;3.53;2.92;;;;;;;;;;4931361;29;20056;-77
2023/06/18 09:17:26;;;;;;;6.85;3.05;;;;;;;;;;4939635;29;20036;-76
2023/06/18 09:20:17;;;;;;;6.32;3.15;;;;;;;;;;4945898;29;20048;-78
2023/06/18 09:23:08;;;;;;;6.10;3.33;;;;;;;;;;4948976;29;20083;-75
2023/06/18 09:25:55;;;;;;;4.88;3.28;;;;;;;;;;4946596;29;20048;-76
2023/06/18 09:28:42;;;;;;;6.13;2.95;;;;;;;;;;4939927;29;20051;-76
2023/06/18 09:31:27;;;;;;;5.88;3.08;;;;;;;;;;4946336;29;20040;-76
2023/06/18 09:34:19;;;;;;;3.83;3.10;;;;;;;;;;4947969;29;20051;-80
2023/06/18 09:37:06;;;;;;;6.90;3.30;;;;;;;;;;4941226;29;20043;-81
2023/06/18 09:39:53;;;;;;;4.88;2.97;;;;;;;;;;4940720;29;20052;-76
2023/06/18 09:42:43;;;;;;;3.97;3.10;;;;;;;;;;4931417;29;20043;-78
2023/06/18 09:45:27;;;;;;;7.10;3.80;;;;;;;;;;4927351;29;20052;-79
2023/06/18 09:48:14;;;;;;;8.80;3.00;;;;;;;;;;4940521;29;20047;-77
2023/06/18 09:51:02;;;;;;;5.97;2.72;;;;;;;;;;4932639;29;20051;-79
2023/06/18 09:54:00;;;;;;;3.45;2.83;;;;;;;;;;4931462;29;20039;-77
2023/06/18 09:57:00;;;;;;;4.65;2.83;;;;;;;;;;4938935;29;20044;-78
2023/06/18 09:59:45;;;;;;;3.92;2.60;;;;;;;;;;4939041;29;20047;-77
2023/06/18 10:02:37;;;;;;;6.05;3.17;;;;;;;;;;4945398;29;20060;-77
2023/06/18 10:05:21;;;;;;;4.40;2.80;;;;;;;;;;4945112;29;20398;-76
2023/06/18 10:08:07;;;;;;;3.80;2.88;;;;;;;;;;4938409;29;20043;-76
2023/06/18 10:10:53;;;;;;;3.22;2.50;;;;;;;;;;4939177;29;20039;-78
2023/06/18 10:13:52;;;;;;;7.32;3.10;;;;;;;;;;4939353;29;20047;-78
2023/06/18 10:16:44;;;;;;;7.97;2.90;;;;;;;;;;4938257;29;20052;-77
2023/06/18 10:19:54;;;;;;;4.13;2.70;;;;;;;;;;4939048;29;20040;-78
2023/06/18 10:22:48;;;;;;;4.35;2.90;;;;;;;;;;4938743;29;20063;-79
2023/06/18 10:25:34;;;;;;;3.65;2.90;;;;;;;;;;4945480;29;20047;-77
2023/06/18 10:28:28;;;;;;;5.22;2.72;;;;;;;;;;4938788;29;20402;-79
2023/06/18 10:31:14;;;;;;;3.85;2.70;;;;;;;;;;4938715;29;20490;-77
2023/06/18 10:34:01;;;;;;;3.65;3.10;;;;;;;;;;4938158;29;20486;-80
2023/06/18 10:36:46;;;;;;;3.50;2.90;;;;;;;;;;4945382;29;20047;-79
2023/06/18 10:39:33;;;;;;;4.47;2.67;;;;;;;;;;4945034;29;20052;-77
2023/06/18 10:42:20;;;;;;;3.40;3.08;;;;;;;;;;4944468;29;20047;-78
2023/06/18 10:45:11;;;;;;;7.22;3.20;;;;;;;;;;4938060;29;20509;-78
2023/06/18 10:48:16;;;;;;;14.63;9.43;;;;;;;;;;4938285;29;20043;-78
2023/06/18 10:51:15;;;;;;;3.95;2.75;;;;;;;;;;4944868;29;20036;-76
2023/06/18 10:54:24;;;;;;;4.72;3.08;;;;;;;;;;4938269;29;20047;-76
2023/06/18 10:57:13;;;;;;;3.63;2.75;;;;;;;;;;4944416;29;20055;-78
2023/06/18 10:59:59;;;;;;;3.75;2.80;;;;;;;;;;4937873;29;20051;-76
2023/06/18 11:02:46;;;;;;;6.60;3.05;;;;;;;;;;4937991;29;20044;-76
2023/06/18 11:05:32;;;;;;;5.18;3.00;;;;;;;;;;4930334;29;20043;-79
2023/06/18 11:08:30;;;;;;;7.22;2.85;;;;;;;;;;4937993;29;20048;-79
2023/06/18 11:11:16;;;;;;;3.70;3.08;;;;;;;;;;4938137;29;20048;-80
2023/06/18 11:14:18;;;;;;;6.78;3.50;;;;;;;;;;4941226;29;20043;-76
2023/06/18 11:17:10;;;;;;;4.93;2.75;;;;;;;;;;4939389;29;20052;-76
2023/06/18 11:19:57;;;;;;;3.90;3.00;;;;;;;;;;4937448;29;20473;-78
2023/06/18 11:22:42;;;;;;;4.55;2.90;;;;;;;;;;4937437;29;20043;-80
2023/06/18 11:25:29;;;;;;;4.45;3.10;;;;;;;;;;4943142;29;20035;-80
2023/06/18 11:28:15;;;;;;;6.07;3.28;;;;;;;;;;4937649;29;20055;-78
2023/06/18 11:31:03;;;;;;;9.30;3.17;;;;;;;;;;4937505;29;20044;-79
2023/06/18 11:33:48;;;;;;;4.07;3.05;;;;;;;;;;4928759;29;20044;-79
2023/06/18 11:36:33;;;;;;;4.65;3.33;;;;;;;;;;4943696;29;20051;-79
2023/06/18 11:39:19;;;;;;;6.57;3.38;;;;;;;;;;4944477;29;20047;-78
2023/06/18 11:42:14;;;;;;;9.32;5.45;;;;;;;;;;4944598;29;20465;-80
2023/06/18 11:45:04;;;;;;;6.30;3.55;;;;;;;;;;4937143;29;20055;-77
2023/06/18 11:47:51;;;;;;;7.40;3.42;;;;;;;;;;4936926;29;20040;-76
2023/06/18 11:50:35;;;;;;;4.95;3.45;;;;;;;;;;4943347;29;20048;-76
2023/06/18 11:53:21;;;;;;;6.13;3.58;;;;;;;;;;4936997;29;20044;-80
2023/06/18 11:56:06;;;;;;;3.78;3.05;;;;;;;;;;4938141;29;20051;-79
2023/06/18 11:58:54;;;;;;;5.22;3.40;;;;;;;;;;4939229;29;20047;-82
2023/06/18 12:01:39;;;;;;;6.40;3.42;;;;;;;;;;4938889;29;20047;-79
2023/06/18 12:04:30;;;;;;;3.58;2.85;;;;;;;;;;4936224;29;20051;-82
2023/06/18 12:07:17;;;;;;;4.32;3.22;;;;;;;;;;4935946;29;20047;-77
2023/06/18 12:10:08;;;;;;;4.30;3.33;;;;;;;;;;4942166;29;20055;-77
2023/06/18 12:13:17;;;;;;;4.60;3.60;;;;;;;;;;4936257;29;20056;-78
2023/06/18 12:16:21;;;;;;;5.00;3.35;;;;;;;;;;4941484;29;20047;-77
2023/06/18 12:19:10;;;;;;;3.47;3.15;;;;;;;;;;4943335;29;20047;-77
2023/06/18 12:21:55;;;;;;;5.65;3.70;;;;;;;;;;4942791;29;20052;-78
2023/06/18 12:24:41;;;;;;;3.75;3.28;;;;;;;;;;4942878;29;20405;-78
2023/06/18 12:27:26;;;;;;;4.07;3.08;;;;;;;;;;4936445;29;20043;-77
2023/06/18 12:30:13;;;;;;;6.00;3.50;;;;;;;;;;4936670;29;20394;-77
2023/06/18 12:33:10;;;;;;;4.32;3.80;;;;;;;;;;4943029;29;20044;-77
2023/06/18 12:35:57;;;;;;;6.13;3.55;;;;;;;;;;4935645;29;20047;-79
2023/06/18 12:38:43;;;;;;;3.95;3.40;;;;;;;;;;4936269;29;20052;-77
2023/06/18 12:41:35;;;;;;;5.93;3.80;;;;;;;;;;4928739;29;20052;-77
2023/06/18 12:44:20;;;;;;;3.47;3.17;;;;;;;;;;4936906;29;20043;-77
2023/06/18 12:47:06;;;;;;;5.25;3.30;;;;;;;;;;4942508;29;20040;-77
2023/06/18 12:49:52;;;;;;;3.88;2.85;;;;;;;;;;4936114;29;20048;-79
2023/06/18 12:52:45;;;;;;;5.20;3.25;;;;;;;;;;4936412;29;20052;-78
2023/06/18 12:55:33;;;;;;;4.15;3.25;;;;;;;;;;4936206;29;20044;-75
2023/06/18 12:58:23;;;;;;;3.63;2.92;;;;;;;;;;4936413;29;20052;-78
2023/06/18 13:01:08;;;;;;;5.30;3.20;;;;;;;;;;4935882;29;20048;-78
2023/06/18 13:03:55;;;;;;;5.03;3.40;;;;;;;;;;4936215;29;20047;-78
2023/06/18 13:06:40;;;;;;;4.60;3.20;;;;;;;;;;4942573;29;20485;-78
2023/06/18 13:09:26;;;;;;;4.03;2.85;;;;;;;;;;4942141;29;20069;-78
2023/06/18 13:12:12;;;;;;;3.30;2.85;;;;;;;;;;4942477;29;20071;-78
2023/06/18 13:14:57;;;;;;;3.60;2.83;;;;;;;;;;4935765;29;20044;-77
2023/06/18 13:17:43;;;;;;;5.50;3.00;;;;;;;;;;4935578;29;20044;-78
2023/06/18 13:20:28;;;;;;;5.22;3.63;;;;;;;;;;4935867;29;20047;-77
2023/06/18 13:23:15;;;;;;;5.18;3.08;;;;;;;;;;4942331;29;20056;-78
2023/06/18 13:26:00;;;;;;;4.93;2.70;;;;;;;;;;4936075;29;20056;-76
2023/06/18 13:28:47;;;;;;;3.58;3.03;;;;;;;;;;4936025;29;20044;-76
2023/06/18 13:31:32;;;;;;;6.00;3.22;;;;;;;;;;4936580;29;20047;-76
2023/06/18 13:34:17;;;;;;;4.38;3.40;;;;;;;;;;4941556;29;20051;-78
2023/06/18 13:37:03;;;;;;;6.82;3.17;;;;;;;;;;4936177;29;20040;-77
2023/06/18 13:39:49;;;;;;;4.65;3.28;;;;;;;;;;4942033;29;20043;-76
2023/06/18 13:42:34;;;;;;;3.80;3.40;;;;;;;;;;4935546;29;20044;-78
2023/06/18 13:45:19;;;;;;;5.93;3.63;;;;;;;;;;4936428;29;20052;-78
2023/06/18 13:48:06;;;;;;;4.47;3.38;;;;;;;;;;4942271;29;20043;-78
2023/06/18 13:50:52;;;;;;;4.45;3.33;;;;;;;;;;4943862;29;20047;-77
2023/06/18 13:53:41;;;;;;;5.47;3.20;;;;;;;;;;4939014;29;20069;-78
2023/06/18 13:56:29;;;;;;;6.38;3.80;;;;;;;;;;4945392;29;20043;-79
2023/06/18 13:59:15;;;;;;;4.03;3.33;;;;;;;;;;4944740;29;20389;-78
2023/06/18 14:02:00;;;;;;;5.13;3.50;;;;;;;;;;4938191;29;20052;-78
2023/06/18 14:04:47;;;;;;;4.88;3.75;;;;;;;;;;4944871;29;20052;-77
2023/06/18 14:07:34;;;;;;;6.80;3.22;;;;;;;;;;4937408;29;20055;-77
2023/06/18 14:10:20;;;;;;;7.47;3.22;;;;;;;;;;4944970;29;20043;-77
2023/06/18 14:13:06;;;;;;;5.78;3.13;;;;;;;;;;4938777;29;20039;-78
2023/06/18 14:15:51;;;;;;;4.50;3.25;;;;;;;;;;4943693;29;20056;-77
2023/06/18 14:18:36;;;;;;;4.35;3.30;;;;;;;;;;4944972;29;20047;-77
2023/06/18 14:21:22;;;;;;;5.18;3.90;;;;;;;;;;4944768;29;20397;-77
2023/06/18 14:24:08;;;;;;;4.93;3.22;;;;;;;;;;4937876;29;20044;-76
2023/06/18 14:26:54;;;;;;;4.47;3.50;;;;;;;;;;4937801;29;20051;-77
2023/06/18 14:29:39;;;;;;;4.93;3.40;;;;;;;;;;4938484;29;20043;-76
2023/06/18 14:32:25;;;;;;;9.65;3.67;;;;;;;;;;4944544;29;20052;-79
2023/06/18 14:35:10;;;;;;;3.50;3.10;;;;;;;;;;4937591;29;20055;-79
2023/06/18 14:37:56;;;;;;;6.75;3.75;;;;;;;;;;4944341;29;20048;-77
2023/06/18 14:40:42;;;;;;;7.07;3.53;;;;;;;;;;4937674;29;20047;-77
2023/06/18 14:43:28;;;;;;;3.40;3.10;;;;;;;;;;4944564;29;20489;-78
2023/06/18 14:46:13;;;;;;;4.45;3.60;;;;;;;;;;4929911;29;20052;-76
2023/06/18 14:48:59;;;;;;;10.32;4.10;;;;;;;;;;4944305;29;20057;-77
2023/06/18 14:51:44;;;;;;;4.75;4.10;;;;;;;;;;4944270;29;20398;-78
2023/06/18 14:54:30;;;;;;;5.82;4.00;;;;;;;;;;4944011;29;20052;-77
2023/06/18 14:57:17;;;;;;;4.85;3.50;;;;;;;;;;4938589;29;20044;-77
2023/06/18 15:00:03;;;;;;;4.15;3.38;;;;;;;;;;4943752;29;20055;-77
2023/06/18 15:02:49;;;;;;;5.80;3.70;;;;;;;;;;4944410;29;20051;-77
2023/06/18 15:05:34;;;;;;;4.95;4.25;;;;;;;;;;4936497;29;20043;-76
2023/06/18 15:08:20;;;;;;;6.18;4.25;;;;;;;;;;4936554;29;20052;-77
2023/06/18 15:11:06;;;;;;;6.20;4.00;;;;;;;;;;4937504;29;20048;-76
2023/06/18 15:13:51;;;;;;;5.35;4.00;;;;;;;;;;4936478;29;20432;-77
2023/06/18 15:16:37;;;;;;;5.60;4.22;;;;;;;;;;4940866;29;20043;-78
2023/06/18 15:19:25;;;;;;;5.25;4.28;;;;;;;;;;4938005;29;20051;-77
2023/06/18 15:22:37;;;;;;;4.60;3.88;;;;;;;;;;4943044;29;20052;-77
2023/06/18 15:25:26;;;;;;;5.45;4.53;;;;;;;;;;4937225;29;20052;-76
2023/06/18 15:28:12;;;;;;;4.85;3.95;;;;;;;;;;4943566;29;20047;-78
2023/06/18 15:30:58;;;;;;;4.70;4.10;;;;;;;;;;4938200;29;20386;-78
2023/06/18 15:33:43;;;;;;;4.88;3.90;;;;;;;;;;4943709;29;20048;-78
2023/06/18 15:36:29;;;;;;;4.43;3.72;;;;;;;;;;4943526;29;20048;-77
2023/06/18 15:39:16;;;;;;;5.45;4.35;;;;;;;;;;4943462;29;20047;-79
2023/06/18 15:42:02;;;;;;;7.32;4.10;;;;;;;;;;4937093;29;20048;-79
2023/06/18 15:44:48;;;;;;;6.90;4.32;;;;;;;;;;4937348;29;20048;-75
2023/06/18 15:47:33;;;;;;;5.75;4.38;;;;;;;;;;4937176;29;20047;-78
2023/06/18 15:50:19;;;;;;;6.28;4.13;;;;;;;;;;4943735;29;20043;-78
2023/06/18 15:53:04;;;;;;;6.32;4.10;;;;;;;;;;4936841;29;20055;-77
2023/06/18 15:55:50;;;;;;;6.60;3.78;;;;;;;;;;4937135;29;20059;-78
2023/06/18 15:58:36;;;;;;;6.25;3.72;;;;;;;;;;4937014;29;20040;-78
2023/06/18 16:01:21;;;;;;;4.00;3.60;;;;;;;;;;4943149;29;20051;-76
2023/06/18 16:04:07;;;;;;;3.80;3.35;;;;;;;;;;4943160;29;20048;-77
2023/06/18 16:06:52;;;;;;;5.05;4.38;;;;;;;;;;4936532;29;20052;-77
2023/06/18 16:09:38;;;;;;;8.82;4.13;;;;;;;;;;4936553;29;20406;-76
2023/06/18 16:12:27;;;;;;;5.45;3.70;;;;;;;;;;4936069;29;20489;-77
2023/06/18 16:15:12;;;;;;;6.03;4.13;;;;;;;;;;4941849;29;20401;-78
2023/06/18 16:18:04;;;;;;;7.75;4.10;;;;;;;;;;4942698;29;20055;-77
2023/06/18 16:20:50;;;;;;;4.25;3.50;;;;;;;;;;4943097;29;20047;-79
2023/06/18 16:23:50;;;;;;;4.88;4.00;;;;;;;;;;4928325;29;20051;-77
2023/06/18 16:26:37;;;;;;;9.60;4.18;;;;;;;;;;4941917;29;20048;-78
2023/06/18 16:29:22;;;;;;;9.20;3.78;;;;;;;;;;4936325;29;20402;-79
2023/06/18 16:32:10;;;;;;;4.68;3.80;;;;;;;;;;4936627;29;20494;-76
2023/06/18 16:34:56;;;;;;;4.63;3.53;;;;;;;;;;4936317;29;20047;-76
2023/06/18 16:37:42;;;;;;;5.60;4.00;;;;;;;;;;4936292;29;20051;-76
2023/06/18 16:40:28;;;;;;;8.85;3.80;;;;;;;;;;4936267;29;20039;-76
2023/06/18 16:43:13;;;;;;;6.28;3.70;;;;;;;;;;4936336;29;20048;-76
2023/06/18 16:45:58;;;;;;;7.65;3.45;;;;;;;;;;4942534;29;20052;-76
2023/06/18 16:48:44;;;;;;;5.00;3.90;;;;;;;;;;4936456;29;20051;-75
2023/06/18 16:51:29;;;;;;;4.93;3.70;;;;;;;;;;4942806;29;20040;-76
2023/06/18 16:54:15;;;;;;;8.00;4.20;;;;;;;;;;4936365;29;20048;-76
2023/06/18 16:57:01;;;;;;;8.15;4.50;;;;;;;;;;4921885;29;20398;-76
2023/06/18 16:59:46;;;;;;;6.95;4.68;;;;;;;;;;4935776;29;20048;-77
2023/06/18 17:02:32;;;;;;;7.07;4.28;;;;;;;;;;4942505;29;20063;-77
2023/06/18 17:05:18;;;;;;;6.90;4.00;;;;;;;;;;4928166;29;20439;-77
2023/06/18 17:08:03;;;;;;;9.13;4.53;;;;;;;;;;4942334;29;20044;-77
2023/06/18 17:10:49;;;;;;;5.75;4.68;;;;;;;;;;4936423;29;20048;-77
2023/06/18 17:13:36;;;;;;;6.10;4.07;;;;;;;;;;4942591;29;20044;-76
2023/06/18 17:16:21;;;;;;;4.43;3.88;;;;;;;;;;4939966;29;20044;-77
2023/06/18 17:19:07;;;;;;;11.43;4.70;;;;;;;;;;4935343;29;20052;-77
2023/06/18 17:21:52;;;;;;;6.70;4.25;;;;;;;;;;4935989;29;20393;-78
2023/06/18 17:24:38;;;;;;;9.70;5.00;;;;;;;;;;4944980;29;20039;-77
2023/06/18 17:27:25;;;;;;;8.68;4.47;;;;;;;;;;4939776;29;20040;-77
2023/06/18 17:30:10;;;;;;;6.85;4.68;;;;;;;;;;4945971;29;20055;-77
2023/06/18 17:32:56;;;;;;;8.30;4.45;;;;;;;;;;4939816;29;20039;-77
2023/06/18 17:35:41;;;;;;;7.18;4.63;;;;;;;;;;4931983;29;20402;-77
2023/06/18 17:38:27;;;;;;;12.25;5.50;;;;;;;;;;4945804;29;20047;-78
2023/06/18 17:41:12;;;;;;;10.05;5.32;;;;;;;;;;4945899;29;20040;-78
2023/06/18 17:43:56;;;;;;;9.05;5.40;;;;;;;;;;4940704;29;20036;-79
2023/06/18 17:46:43;;;;;;;8.35;5.50;;;;;;;;;;4943453;29;20043;-79
2023/06/18 17:49:28;;;;;;;14.93;5.43;;;;;;;;;;4940082;29;20035;-80
2023/06/18 17:52:12;;;;;;;11.75;5.30;;;;;;;;;;4939621;29;20047;-79
2023/06/18 17:54:58;;;;;;;9.68;4.82;;;;;;;;;;4939682;29;20044;-80
2023/06/18 17:57:43;;;;;;;7.40;5.32;;;;;;;;;;4939342;29;20052;-78
2023/06/18 18:00:28;;;;;;;23.38;7.30;;;;;;;;;;4939247;29;20047;-80
2023/06/18 18:03:14;;;;;;;19.33;9.82;;;;;;;;;;4946021;29;20051;-78
2023/06/18 18:06:03;;;;;;;16.17;8.50;;;;;;;;;;4946363;29;20048;-78
2023/06/18 18:08:50;;;;;;;10.48;6.15;;;;;;;;;;4931456;29;20043;-78
2023/06/18 18:11:36;;;;;;;11.70;7.30;;;;;;;;;;4939501;29;20047;-79
2023/06/18 18:14:23;;;;;;;12.15;6.95;;;;;;;;;;4939846;29;20055;-81
2023/06/18 18:17:09;;;;;;;13.88;6.53;;;;;;;;;;4941162;29;20044;-83
2023/06/18 18:19:55;;;;;;;11.60;6.13;;;;;;;;;;4927806;29;20055;-83
2023/06/18 18:22:41;;;;;;;8.95;6.38;;;;;;;;;;4926561;29;20056;-82
2023/06/18 18:25:26;;;;;;;14.50;7.80;;;;;;;;;;4939986;29;20051;-79
2023/06/18 18:28:12;;;;;;;16.42;8.85;;;;;;;;;;4940160;29;20409;-81
2023/06/18 18:30:59;;;;;;;19.92;9.63;;;;;;;;;;4932108;29;20386;-80